Time;durP1;ratioP1;P1;durP2;ratioP2;P2;SDS_P1;SDS_P2;PMS_P1;PMS_P2;Temp;Humidity;BMP_temperature;BMP_pressure;BME280_temperature;BME280_humidity;BME280_pressure;Samples;Min_cycle;Max_cycle;Signal;HPM_P1;HPM_P2
2024/03/08 00:00:12;;;;;;;29.63;15.90;;;2.00;1.00;;;;;;5111166;28;20241;-78
2024/03/08 00:02:39;;;;;;;30.60;16.70;;;2.00;1.00;;;;;;5102200;28;20205;-78
2024/03/08 00:05:08;;;;;;;31.53;16.07;;;2.00;1.00;;;;;;5106054;28;20221;-78
2024/03/08 00:07:35;;;;;;;31.87;16.87;;;2.10;1.00;;;;;;5103467;28;20198;-78
2024/03/08 00:10:04;;;;;;;31.20;17.47;;;2.10;1.00;;;;;;5111398;28;20225;-77
2024/03/08 00:12:31;;;;;;;31.93;16.43;;;2.10;1.00;;;;;;5111583;28;20193;-79
2024/03/08 00:14:58;;;;;;;30.43;16.53;;;2.00;1.00;;;;;;5104360;28;20201;-77
2024/03/08 00:17:27;;;;;;;32.93;17.30;;;2.00;1.00;;;;;;5113753;28;20548;-78
2024/03/08 00:19:54;;;;;;;33.53;15.90;;;2.00;1.00;;;;;;5109904;28;20232;-79
2024/03/08 00:22:21;;;;;;;34.47;16.97;;;1.90;1.00;;;;;;5116354;28;20224;-79
2024/03/08 00:24:50;;;;;;;30.97;15.67;;;1.90;1.00;;;;;;5112509;28;20224;-78
2024/03/08 00:27:20;;;;;;;35.10;17.63;;;1.90;1.00;;;;;;5110491;28;20222;-78
2024/03/08 00:29:47;;;;;;;34.73;17.00;;;1.80;1.00;;;;;;5107111;28;20218;-79
2024/03/08 00:32:14;;;;;;;34.50;16.50;;;1.60;1.00;;;;;;5112688;28;20678;-78
2024/03/08 00:34:41;;;;;;;35.33;17.83;;;1.70;1.00;;;;;;5112189;28;20194;-78
2024/03/08 00:37:08;;;;;;;33.87;18.37;;;1.70;1.00;;;;;;5114187;28;20753;-78
2024/03/08 00:39:35;;;;;;;33.83;16.77;;;1.70;1.00;;;;;;5111382;28;20569;-79
2024/03/08 00:42:03;;;;;;;32.60;16.73;;;1.70;1.00;;;;;;5101143;28;20206;-78
2024/03/08 00:44:31;;;;;;;31.90;16.83;;;1.70;1.00;;;;;;5076485;28;1158457;-78
2024/03/08 00:46:58;;;;;;;30.77;17.20;;;1.50;1.00;;;;;;5114183;28;20197;-79
2024/03/08 00:49:25;;;;;;;31.00;16.90;;;1.50;1.00;;;;;;5105687;28;20616;-78
2024/03/08 00:51:52;;;;;;;31.00;17.13;;;1.30;1.00;;;;;;5102474;28;20217;-78
2024/03/08 00:54:20;;;;;;;35.13;16.07;;;1.30;1.00;;;;;;5110929;28;20220;-78
2024/03/08 00:56:47;;;;;;;32.10;16.80;;;1.10;1.00;;;;;;5111622;28;20663;-78
2024/03/08 00:59:14;;;;;;;29.10;16.03;;;1.00;1.00;;;;;;5116484;28;20692;-78
2024/03/08 01:01:43;;;;;;;33.53;17.07;;;0.90;1.00;;;;;;5105939;28;20223;-78
2024/03/08 01:04:11;;;;;;;33.43;16.77;;;1.00;83.30;;;;;;5116106;28;20289;-79
2024/03/08 01:06:38;;;;;;;31.37;15.97;;;1.10;67.80;;;;;;5112195;28;20231;-78
2024/03/08 01:09:06;;;;;;;31.67;16.70;;;1.00;82.10;;;;;;5106252;28;20246;-79
2024/03/08 01:11:34;;;;;;;31.70;16.90;;;0.80;99.90;;;;;;5107165;28;20255;-78
2024/03/08 01:14:01;;;;;;;32.77;16.70;;;0.70;99.90;;;;;;5114912;28;20197;-78
2024/03/08 01:16:28;;;;;;;32.93;17.40;;;0.80;99.90;;;;;;5108818;28;20225;-79
2024/03/08 01:18:56;;;;;;;31.13;17.40;;;0.70;99.90;;;;;;5104449;28;20244;-78
2024/03/08 01:21:23;;;;;;;36.97;17.47;;;0.80;99.90;;;;;;5110191;28;20224;-78
2024/03/08 01:23:50;;;;;;;31.07;16.63;;;0.80;99.90;;;;;;5109926;28;20626;-78
2024/03/08 01:26:17;;;;;;;37.60;17.23;;;0.60;99.90;;;;;;5115560;28;20217;-79
2024/03/08 01:28:44;;;;;;;35.67;17.70;;;0.70;1.00;;;;;;5107571;28;20205;-78
2024/03/08 01:31:12;;;;;;;33.90;17.23;;;0.70;1.00;;;;;;5111397;28;20266;-77
2024/03/08 01:33:40;;;;;;;30.90;16.00;;;0.60;1.00;;;;;;5110231;28;20224;-77
2024/03/08 01:36:08;;;;;;;31.57;16.37;;;0.40;1.00;;;;;;5110575;28;20263;-79
2024/03/08 01:38:36;;;;;;;32.57;16.83;;;0.30;1.00;;;;;;5107996;28;20201;-79
2024/03/08 01:41:04;;;;;;;33.40;16.47;;;0.20;1.00;;;;;;5105946;28;20275;-77
2024/03/08 01:43:31;;;;;;;31.73;16.17;;;0.20;91.80;;;;;;5105400;28;20744;-78
2024/03/08 01:45:59;;;;;;;35.13;17.63;;;0.10;99.90;;;;;;5108912;28;20213;-78
2024/03/08 01:48:27;;;;;;;36.23;18.50;;;0.10;99.90;;;;;;5105500;28;20197;-78
2024/03/08 01:50:55;;;;;;;36.50;20.10;;;0.30;99.90;;;;;;5111131;28;20217;-77
2024/03/08 01:53:26;;;;;;;36.57;18.63;;;0.30;1.00;;;;;;5109966;28;20201;-78
2024/03/08 01:55:57;;;;;;;38.87;18.57;;;0.30;99.90;;;;;;5107557;28;20254;-78
2024/03/08 01:58:24;;;;;;;39.20;18.93;;;0.40;1.00;;;;;;5109873;28;20197;-77
2024/03/08 02:00:52;;;;;;;39.43;19.03;;;0.40;99.90;;;;;;5107017;28;20221;-77
2024/03/08 02:03:20;;;;;;;40.00;20.20;;;0.40;99.90;;;;;;5104681;28;20198;-78
2024/03/08 02:05:47;;;;;;;37.10;18.57;;;0.50;99.90;;;;;;5114899;28;20242;-78
2024/03/08 02:08:14;;;;;;;40.20;20.10;;;0.50;99.90;;;;;;5122078;28;20205;-78
2024/03/08 02:10:43;;;;;;;40.67;18.80;;;0.40;99.90;;;;;;5111158;28;20225;-78
2024/03/08 02:13:10;;;;;;;35.27;17.53;;;0.50;99.90;;;;;;5109871;28;20246;-78
2024/03/08 02:15:53;;;;;;;36.77;19.03;;;0.50;99.90;;;;;;5115773;28;20193;-77
2024/03/08 02:18:21;;;;;;;36.17;19.03;;;0.50;99.90;;;;;;5110813;28;20577;-78
2024/03/08 02:20:50;;;;;;;35.43;18.57;;;0.40;99.90;;;;;;5112873;28;20225;-78
2024/03/08 02:23:17;;;;;;;38.07;21.73;;;0.30;99.90;;;;;;5119091;28;20593;-78
2024/03/08 02:25:44;;;;;;;39.67;22.50;;;0.40;1.00;;;;;;5114082;28;20589;-78
2024/03/08 02:28:12;;;;;;;36.43;20.67;;;0.40;99.90;;;;;;5115404;28;20197;-78
2024/03/08 02:30:39;;;;;;;35.03;17.20;;;0.50;99.90;;;;;;5119231;28;20205;-77
2024/03/08 02:33:06;;;;;;;38.87;19.57;;;0.40;99.90;;;;;;5113721;28;20201;-78
2024/03/08 02:35:33;;;;;;;38.27;18.37;;;0.20;1.00;;;;;;5118157;28;20202;-78
2024/03/08 02:38:02;;;;;;;37.67;20.77;;;0.00;16.50;;;;;;5111872;28;20228;-78
2024/03/08 02:40:29;;;;;;;42.00;20.57;;;0.00;79.00;;;;;;5110838;28;20232;-79
2024/03/08 02:42:56;;;;;;;38.97;19.23;;;0.20;1.00;;;;;;5115942;28;20206;-78
2024/03/08 02:45:23;;;;;;;38.33;17.50;;;0.20;1.00;;;;;;5104437;28;20221;-77
2024/03/08 02:47:50;;;;;;;39.57;22.17;;;0.20;1.00;;;;;;5100826;28;20236;-77
2024/03/08 02:50:17;;;;;;;38.50;18.27;;;0.30;1.00;;;;;;5106807;28;20248;-76
2024/03/08 02:52:46;;;;;;;39.47;19.23;;;0.30;1.00;;;;;;5099918;28;20254;-76
2024/03/08 02:55:16;;;;;;;38.50;22.37;;;0.40;1.00;;;;;;5105875;28;20626;-76
2024/03/08 02:57:43;;;;;;;38.23;21.43;;;0.30;99.90;;;;;;5097332;28;20208;-76
2024/03/08 03:00:11;;;;;;;37.73;22.57;;;0.30;1.00;;;;;;5098773;28;20528;-77
2024/03/08 03:02:38;;;;;;;39.33;18.77;;;0.20;1.00;;;;;;5098077;28;20206;-77
2024/03/08 03:05:06;;;;;;;38.33;19.03;;;0.20;1.00;;;;;;5107877;28;20196;-77
2024/03/08 03:07:34;;;;;;;36.67;20.83;;;0.20;1.00;;;;;;5103081;28;20244;-76
2024/03/08 03:10:01;;;;;;;34.40;16.83;;;0.00;1.00;;;;;;5104934;28;20217;-77
2024/03/08 03:12:30;;;;;;;36.33;18.00;;;0.30;1.00;;;;;;5102575;28;20288;-76
2024/03/08 03:14:57;;;;;;;35.80;17.07;;;0.20;99.90;;;;;;5105344;28;20211;-76
2024/03/08 03:17:24;;;;;;;36.87;17.33;;;0.20;1.00;;;;;;5105264;28;20732;-77
2024/03/08 03:19:51;;;;;;;38.27;17.77;;;0.20;1.00;;;;;;5096220;28;20286;-76
2024/03/08 03:22:18;;;;;;;38.93;19.13;;;0.20;1.00;;;;;;5098211;28;20288;-77
2024/03/08 03:24:46;;;;;;;37.80;19.40;;;0.10;1.00;;;;;;5101528;28;20310;-76
2024/03/08 03:27:13;;;;;;;36.47;18.93;;;0.10;1.00;;;;;;5100476;28;20714;-77
2024/03/08 03:29:45;;;;;;;36.23;18.80;;;0.00;1.00;;;;;;5100976;28;20208;-76
2024/03/08 03:32:12;;;;;;;38.23;20.53;;;0.00;1.00;;;;;;5097281;28;20579;-76
2024/03/08 03:34:39;;;;;;;36.67;19.50;;;-0.10;1.00;;;;;;5104468;28;20620;-77
2024/03/08 03:37:08;;;;;;;37.30;18.27;;;0.00;1.00;;;;;;5101976;28;20227;-77
2024/03/08 03:39:40;;;;;;;37.47;21.57;;;0.00;1.00;;;;;;5103516;28;20206;-77
2024/03/08 03:42:07;;;;;;;36.53;18.97;;;0.00;1.00;;;;;;5110964;28;20615;-77
2024/03/08 03:44:34;;;;;;;40.27;18.40;;;-0.10;1.00;;;;;;5110806;28;20235;-77
2024/03/08 03:47:02;;;;;;;39.73;20.63;;;0.00;1.00;;;;;;5109227;28;20243;-77
2024/03/08 03:49:29;;;;;;;38.40;21.53;;;0.00;1.00;;;;;;5107225;28;20205;-77
2024/03/08 03:51:56;;;;;;;39.30;20.23;;;0.00;1.00;;;;;;5109026;28;20229;-77
2024/03/08 03:54:23;;;;;;;37.80;19.27;;;-0.20;1.00;;;;;;5106502;28;20718;-77
2024/03/08 03:56:52;;;;;;;39.60;20.47;;;-0.10;1.00;;;;;;5106026;28;20201;-77
2024/03/08 03:59:19;;;;;;;37.03;18.80;;;-0.20;1.00;;;;;;5112533;28;20197;-77
2024/03/08 04:01:46;;;;;;;37.03;19.10;;;-0.20;22.60;;;;;;5112355;28;20230;-77
2024/03/08 04:04:14;;;;;;;38.03;19.83;;;-0.10;26.80;;;;;;5106084;28;20220;-77
2024/03/08 04:06:41;;;;;;;40.70;20.93;;;-0.20;1.00;;;;;;5118008;28;20221;-77
2024/03/08 04:09:09;;;;;;;39.10;22.27;;;-0.20;1.00;;;;;;5115623;28;20201;-78
2024/03/08 04:11:36;;;;;;;39.83;22.77;;;-0.20;1.00;;;;;;5119218;28;20257;-77
2024/03/08 04:14:03;;;;;;;43.73;21.13;;;-0.20;1.00;;;;;;5118041;28;20254;-78
2024/03/08 04:16:30;;;;;;;40.03;20.50;;;-0.40;99.90;;;;;;5119149;28;20645;-77
2024/03/08 04:18:57;;;;;;;39.73;20.10;;;-0.50;99.90;;;;;;5113325;27;20213;-77
2024/03/08 04:21:25;;;;;;;37.77;18.57;;;-0.50;99.90;;;;;;5119765;28;20225;-78
2024/03/08 04:23:52;;;;;;;35.87;20.67;;;-0.60;99.90;;;;;;5119542;28;20216;-78
2024/03/08 04:26:19;;;;;;;38.83;19.17;;;-0.60;99.90;;;;;;5122892;28;20250;-78
2024/03/08 04:28:46;;;;;;;34.97;18.70;;;-0.80;36.20;;;;;;5121357;28;20253;-77
2024/03/08 04:31:13;;;;;;;35.33;19.20;;;-0.80;99.90;;;;;;5122262;28;20213;-78
2024/03/08 04:33:40;;;;;;;36.63;19.10;;;-0.80;99.90;;;;;;5123539;28;20358;-78
2024/03/08 04:36:08;;;;;;;39.47;20.27;;;-0.50;99.90;;;;;;5126077;27;20193;-78
2024/03/08 04:38:36;;;;;;;38.17;19.17;;;-0.80;1.00;;;;;;5110990;28;20639;-77
2024/03/08 04:41:03;;;;;;;39.50;18.50;;;-0.90;99.90;;;;;;5115260;28;20564;-78
2024/03/08 04:43:30;;;;;;;39.83;20.30;;;-1.00;1.00;;;;;;5106657;28;20221;-78
2024/03/08 04:45:58;;;;;;;43.80;20.83;;;-0.80;1.00;;;;;;5123685;28;20213;-77
2024/03/08 04:48:26;;;;;;;41.53;20.10;;;-1.00;1.00;;;;;;5123718;28;20260;-76
2024/03/08 04:50:54;;;;;;;42.87;23.30;;;-1.20;1.00;;;;;;5122073;28;20307;-78
2024/03/08 04:53:21;;;;;;;40.00;22.43;;;-1.10;4.50;;;;;;5123634;28;20212;-77
2024/03/08 04:55:49;;;;;;;39.60;22.57;;;-1.20;99.90;;;;;;5119545;28;20725;-78
2024/03/08 04:58:16;;;;;;;42.53;23.30;;;-0.90;1.00;;;;;;5119589;28;20193;-77
2024/03/08 05:00:43;;;;;;;40.37;23.73;;;-0.90;1.00;;;;;;5123901;28;20251;-76
2024/03/08 05:03:10;;;;;;;42.37;20.57;;;-0.90;1.00;;;;;;5123651;28;20205;-78
2024/03/08 05:05:37;;;;;;;38.87;21.37;;;-0.90;1.00;;;;;;5117493;28;20204;-77
2024/03/08 05:08:05;;;;;;;43.23;21.10;;;-0.80;99.90;;;;;;5122973;28;20273;-77
2024/03/08 05:10:32;;;;;;;43.70;23.93;;;-0.80;67.90;;;;;;5116821;28;20691;-77
2024/03/08 05:13:00;;;;;;;43.57;23.73;;;-0.70;99.90;;;;;;5123465;28;20208;-78
2024/03/08 05:15:27;;;;;;;45.00;24.10;;;-0.70;38.30;;;;;;5120646;28;20200;-77
2024/03/08 05:17:55;;;;;;;40.77;23.83;;;-0.70;1.00;;;;;;5121150;28;20193;-78
2024/03/08 05:20:22;;;;;;;42.83;23.73;;;-0.70;83.00;;;;;;5116472;28;20230;-77
2024/03/08 05:22:49;;;;;;;38.57;18.97;;;-0.70;1.00;;;;;;5116230;28;20201;-77
2024/03/08 05:25:17;;;;;;;43.50;21.17;;;-0.70;99.90;;;;;;5120609;28;20193;-77
2024/03/08 05:27:44;;;;;;;36.63;19.73;;;-0.60;20.40;;;;;;5120298;28;20300;-77
2024/03/08 05:30:14;;;;;;;46.40;25.27;;;-0.60;99.90;;;;;;5118852;28;20216;-77
2024/03/08 05:32:44;;;;;;;47.77;25.57;;;-0.50;99.90;;;;;;5118383;28;20208;-77
2024/03/08 05:35:12;;;;;;;44.27;24.00;;;-0.20;95.60;;;;;;5109288;28;20239;-77
2024/03/08 05:37:39;;;;;;;45.70;19.30;;;-0.40;1.00;;;;;;5117177;28;20193;-76
2024/03/08 05:40:09;;;;;;;43.90;20.33;;;-0.40;19.90;;;;;;5109542;28;20588;-77
2024/03/08 05:42:37;;;;;;;41.30;19.87;;;-0.50;97.70;;;;;;5104899;28;20279;-78
2024/03/08 05:45:04;;;;;;;42.60;20.77;;;-0.40;1.00;;;;;;5116619;28;20216;-77
2024/03/08 05:47:32;;;;;;;42.43;23.13;;;-0.50;1.00;;;;;;5109517;28;20217;-77
2024/03/08 05:49:59;;;;;;;42.17;19.07;;;-0.50;83.90;;;;;;5112786;28;20582;-77
2024/03/08 05:52:26;;;;;;;48.17;26.70;;;-0.50;99.90;;;;;;5114179;28;20245;-78
2024/03/08 05:54:53;;;;;;;43.93;20.03;;;-0.40;1.00;;;;;;5107154;28;20233;-77
2024/03/08 05:57:23;;;;;;;42.33;21.37;;;-0.20;10.60;;;;;;5123021;28;20231;-77
2024/03/08 05:59:49;;;;;;;46.27;26.37;;;-0.50;99.90;;;;;;5124498;28;20224;-77
2024/03/08 06:02:19;;;;;;;45.60;22.33;;;-0.60;1.00;;;;;;5119147;28;20231;-79
2024/03/08 06:04:47;;;;;;;46.90;24.70;;;-0.70;1.00;;;;;;5123149;28;20204;-78
2024/03/08 06:07:14;;;;;;;47.93;27.00;;;-0.80;99.90;;;;;;5108617;28;20231;-79
2024/03/08 06:09:45;;;;;;;45.73;25.50;;;-0.70;99.90;;;;;;5108196;28;20205;-77
2024/03/08 06:12:12;;;;;;;46.20;24.03;;;-0.90;1.00;;;;;;5105528;28;20217;-77
2024/03/08 06:14:39;;;;;;;41.47;23.07;;;-1.00;1.00;;;;;;5113678;28;20230;-78
2024/03/08 06:17:07;;;;;;;44.60;21.97;;;-0.90;1.00;;;;;;5108724;28;20205;-78
2024/03/08 06:19:35;;;;;;;44.73;23.83;;;-0.90;1.00;;;;;;5115134;28;20197;-77
2024/03/08 06:22:05;;;;;;;47.87;25.53;;;-0.90;1.00;;;;;;5102675;28;20213;-76
2024/03/08 06:24:32;;;;;;;48.63;25.60;;;-0.80;1.00;;;;;;5099736;28;20252;-78
2024/03/08 06:26:59;;;;;;;49.40;27.87;;;-0.70;1.00;;;;;;5103674;28;20288;-77
2024/03/08 06:29:26;;;;;;;49.30;25.10;;;-0.60;1.00;;;;;;5099155;28;20615;-78
2024/03/08 06:31:53;;;;;;;46.73;23.87;;;-0.60;99.90;;;;;;5104536;28;20228;-77
2024/03/08 06:34:20;;;;;;;46.27;23.10;;;-0.40;99.90;;;;;;5112437;28;20254;-78
2024/03/08 06:36:47;;;;;;;44.93;22.80;;;-0.50;78.00;;;;;;5098208;28;20209;-78
2024/03/08 06:39:15;;;;;;;49.47;23.33;;;-0.50;52.60;;;;;;5104938;28;20250;-77
2024/03/08 06:41:44;;;;;;;48.00;24.23;;;-0.40;99.90;;;;;;5101714;28;20654;-77
2024/03/08 06:44:11;;;;;;;57.50;25.77;;;0.20;1.00;;;;;;5105120;28;20215;-77
2024/03/08 06:46:39;;;;;;;48.80;24.63;;;-0.20;1.00;;;;;;5108321;28;20225;-77
2024/03/08 06:49:07;;;;;;;48.43;24.50;;;0.00;99.90;;;;;;5099879;28;20242;-77
2024/03/08 06:51:34;;;;;;;44.60;22.43;;;0.00;99.90;;;;;;5099327;28;20305;-77
2024/03/08 06:54:01;;;;;;;53.27;24.63;;;0.10;1.00;;;;;;5103629;28;20201;-77
2024/03/08 06:56:29;;;;;;;51.27;26.07;;;0.20;1.00;;;;;;5105828;28;20224;-77
2024/03/08 06:58:56;;;;;;;47.67;28.97;;;0.20;99.90;;;;;;5103420;28;20209;-77
2024/03/08 07:01:23;;;;;;;52.30;26.30;;;0.30;99.90;;;;;;5104366;28;20244;-77
2024/03/08 07:03:52;;;;;;;51.77;24.57;;;0.50;99.90;;;;;;5103793;28;20897;-77
2024/03/08 07:06:20;;;;;;;50.20;23.17;;;0.70;1.00;;;;;;5106416;28;20197;-77
2024/03/08 07:08:48;;;;;;;47.60;24.17;;;0.80;1.00;;;;;;5109865;28;20236;-77
2024/03/08 07:11:18;;;;;;;45.77;20.43;;;1.00;99.90;;;;;;5108472;28;20624;-76
2024/03/08 07:13:46;;;;;;;48.83;23.50;;;1.20;27.40;;;;;;5110797;28;20254;-77
2024/03/08 07:16:14;;;;;;;42.27;26.03;;;1.20;71.30;;;;;;5103199;28;20302;-78
2024/03/08 07:18:43;;;;;;;43.53;21.90;;;1.20;1.00;;;;;;5110315;28;20288;-77
2024/03/08 07:21:10;;;;;;;41.10;20.70;;;1.30;1.00;;;;;;5103634;28;20225;-77
2024/03/08 07:24:02;;;;;;;42.37;23.23;;;1.50;1.00;;;;;;5098588;28;20206;-77
2024/03/08 07:26:30;;;;;;;46.40;22.67;;;1.50;1.00;;;;;;5099313;28;20652;-77
2024/03/08 07:29:00;;;;;;;41.63;19.87;;;1.60;1.00;;;;;;5108086;28;20560;-77
2024/03/08 07:31:37;;;;;;;45.63;22.70;;;1.70;1.00;;;;;;5105449;28;20300;-76
2024/03/08 07:34:07;;;;;;;44.13;23.50;;;1.80;1.00;;;;;;5108389;27;20251;-76
2024/03/08 07:36:35;;;;;;;45.43;22.43;;;1.90;99.90;;;;;;5101338;28;20205;-76
2024/03/08 07:39:02;;;;;;;37.30;19.07;;;1.90;99.90;;;;;;5113092;28;20644;-77
2024/03/08 07:41:29;;;;;;;43.17;21.30;;;2.00;11.00;;;;;;5100921;28;20260;-77
2024/03/08 07:43:58;;;;;;;38.63;22.20;;;2.30;64.70;;;;;;5107960;28;20213;-77
2024/03/08 07:46:25;;;;;;;36.23;17.37;;;2.80;1.00;;;;;;5098008;28;20664;-76
2024/03/08 07:48:52;;;;;;;39.83;20.57;;;2.60;1.00;;;;;;5104752;28;20218;-77
2024/03/08 07:51:20;;;;;;;38.40;19.97;;;3.40;1.00;;;;;;5110727;28;20601;-76
2024/03/08 07:53:47;;;;;;;30.50;12.67;;;3.60;1.00;;;;;;5108051;28;20250;-77
2024/03/08 07:56:16;;;;;;;27.27;13.20;;;3.10;99.90;;;;;;5114258;28;20626;-76
2024/03/08 07:58:43;;;;;;;36.77;19.33;;;2.50;99.90;;;;;;5103524;28;20304;-77
2024/03/08 08:01:17;;;;;;;24.47;12.43;;;2.80;99.90;;;;;;5105875;28;20222;-77
2024/03/08 08:03:44;;;;;;;34.00;17.77;;;2.60;99.90;;;;;;5100886;28;20224;-77
2024/03/08 08:06:15;;;;;;;14.70;7.50;;;3.00;99.90;;;;;;5104949;28;20204;-76
2024/03/08 08:08:42;;;;;;;38.63;18.93;;;2.90;99.90;;;;;;5099944;28;20217;-77
2024/03/08 08:11:11;;;;;;;42.43;20.73;;;2.70;99.90;;;;;;5102180;28;20274;-77
2024/03/08 08:13:38;;;;;;;34.13;18.20;;;3.20;99.90;;;;;;5105353;28;20206;-78
2024/03/08 08:16:06;;;;;;;31.93;15.63;;;3.30;99.90;;;;;;5093413;28;20208;-78
2024/03/08 08:18:35;;;;;;;31.93;16.40;;;3.30;1.00;;;;;;5099974;28;20213;-77
2024/03/08 08:21:03;;;;;;;37.77;19.40;;;3.20;43.00;;;;;;5104906;28;20392;-77
2024/03/08 08:23:30;;;;;;;43.37;20.43;;;3.50;1.00;;;;;;5100181;28;20319;-76
2024/03/08 08:25:57;;;;;;;38.87;18.07;;;3.60;13.50;;;;;;5101254;28;20284;-77
2024/03/08 08:28:24;;;;;;;36.30;18.97;;;3.50;1.00;;;;;;5104997;28;20213;-79
2024/03/08 08:30:52;;;;;;;37.13;18.63;;;3.90;1.00;;;;;;5103766;28;20224;-77
2024/03/08 08:33:19;;;;;;;39.07;22.40;;;3.70;1.00;;;;;;5114687;28;20197;-78
2024/03/08 08:35:48;;;;;;;40.10;22.97;;;4.10;1.00;;;;;;5111897;28;20685;-78
2024/03/08 08:38:15;;;;;;;43.70;21.87;;;4.00;1.00;;;;;;5100561;28;20213;-77
2024/03/08 08:40:42;;;;;;;33.43;19.43;;;4.20;1.00;;;;;;5122290;28;20274;-77
2024/03/08 08:43:08;;;;;;;27.57;15.03;;;4.00;1.00;;;;;;5118502;28;20250;-77
2024/03/08 08:45:36;;;;;;;40.00;20.83;;;3.80;1.00;;;;;;5116103;28;20241;-76
2024/03/08 08:48:05;;;;;;;41.77;23.47;;;4.50;1.00;;;;;;5099545;28;20249;-77
2024/03/08 08:50:32;;;;;;;31.57;15.73;;;4.10;1.00;;;;;;5096856;28;20308;-76
2024/03/08 08:53:00;;;;;;;41.33;21.43;;;3.80;1.00;;;;;;5103640;28;20223;-77
2024/03/08 08:55:27;;;;;;;38.67;20.00;;;3.90;1.00;;;;;;5096713;28;20263;-77
2024/03/08 08:57:55;;;;;;;38.23;17.47;;;3.80;1.00;;;;;;5098594;28;20204;-76
2024/03/08 09:00:26;;;;;;;34.73;17.97;;;3.70;1.00;;;;;;5101439;28;20221;-77
2024/03/08 09:02:55;;;;;;;41.80;22.57;;;3.80;1.00;;;;;;5104148;28;20627;-77
2024/03/08 09:05:24;;;;;;;34.13;18.20;;;3.80;1.00;;;;;;5105319;28;20202;-80
2024/03/08 09:07:51;;;;;;;34.23;16.40;;;3.80;1.00;;;;;;5105705;28;20227;-79
2024/03/08 09:10:19;;;;;;;35.40;17.73;;;4.00;1.00;;;;;;5108534;28;20244;-79
2024/03/08 09:12:47;;;;;;;32.13;16.13;;;4.10;1.00;;;;;;5105257;28;20247;-79
2024/03/08 09:15:14;;;;;;;37.80;20.53;;;4.30;1.00;;;;;;5106975;28;20206;-78
2024/03/08 09:17:41;;;;;;;38.73;19.70;;;4.50;1.00;;;;;;5101813;28;20232;-76
2024/03/08 09:20:09;;;;;;;40.53;23.73;;;4.40;1.00;;;;;;5107025;28;20231;-79
2024/03/08 09:22:37;;;;;;;38.07;20.47;;;4.90;1.00;;;;;;5107091;28;20205;-78
2024/03/08 09:25:05;;;;;;;27.03;15.47;;;5.10;1.00;;;;;;5110212;28;20204;-81
2024/03/08 09:27:33;;;;;;;39.27;20.73;;;5.00;99.90;;;;;;5106778;28;20694;-78
2024/03/08 09:30:01;;;;;;;38.40;22.67;;;5.10;99.90;;;;;;5114065;28;20227;-80
2024/03/08 09:32:28;;;;;;;37.13;22.23;;;5.30;99.90;;;;;;5097374;28;20205;-80
2024/03/08 09:34:56;;;;;;;31.73;16.67;;;5.40;99.90;;;;;;5101263;28;20735;-80
2024/03/08 09:37:22;;;;;;;33.23;19.30;;;5.30;99.90;;;;;;5104414;28;20648;-79
2024/03/08 09:39:49;;;;;;;36.03;19.27;;;5.20;99.90;;;;;;5104516;28;20201;-79
2024/03/08 09:42:17;;;;;;;30.80;17.20;;;5.60;99.90;;;;;;5106869;28;20244;-80
2024/03/08 09:44:48;;;;;;;36.07;20.67;;;5.50;99.90;;;;;;5100571;28;20208;-80
2024/03/08 09:47:15;;;;;;;40.47;20.43;;;5.60;99.90;;;;;;5106647;28;20212;-80
2024/03/08 09:49:43;;;;;;;36.07;21.90;;;6.10;99.90;;;;;;5100258;28;20201;-81
2024/03/08 09:52:12;;;;;;;35.57;18.17;;;5.90;99.90;;;;;;5100337;28;20684;-78
2024/03/08 09:54:39;;;;;;;28.43;15.17;;;5.80;99.90;;;;;;5106756;28;20758;-79
2024/03/08 09:57:09;;;;;;;31.83;16.70;;;5.90;99.90;;;;;;5103989;28;20205;-79
2024/03/08 09:59:47;;;;;;;33.57;18.40;;;6.00;99.90;;;;;;5106795;28;20205;-78
2024/03/08 10:02:18;;;;;;;30.53;15.07;;;6.10;99.90;;;;;;5108774;28;20211;-80
2024/03/08 10:04:48;;;;;;;37.80;21.43;;;6.10;99.90;;;;;;5113628;28;20197;-78
2024/03/08 10:07:16;;;;;;;33.17;16.00;;;6.10;99.90;;;;;;5105007;28;20294;-78
2024/03/08 10:09:47;;;;;;;37.37;22.60;;;6.10;99.90;;;;;;5112643;28;20196;-78
2024/03/08 10:12:14;;;;;;;29.37;14.27;;;6.10;34.30;;;;;;5104328;28;20193;-79
2024/03/08 10:14:43;;;;;;;31.37;17.80;;;6.10;60.90;;;;;;5104569;28;20201;-80
2024/03/08 10:17:10;;;;;;;36.10;18.93;;;6.30;69.00;;;;;;5098007;28;20589;-80
2024/03/08 10:19:39;;;;;;;33.30;19.83;;;6.20;18.90;;;;;;5096590;28;20194;-82
2024/03/08 10:22:06;;;;;;;33.03;19.23;;;6.30;56.10;;;;;;5100310;28;20662;-77
2024/03/08 10:24:34;;;;;;;36.73;22.00;;;6.30;1.00;;;;;;5109160;28;20213;-82
2024/03/08 10:27:04;;;;;;;34.50;20.87;;;6.60;83.60;;;;;;5111713;28;20296;-78
2024/03/08 10:29:34;;;;;;;30.67;16.90;;;6.70;16.80;;;;;;5100973;28;20220;-80
2024/03/08 10:32:05;;;;;;;32.47;19.33;;;6.40;1.00;;;;;;5109074;28;20636;-80
2024/03/08 10:34:32;;;;;;;34.80;21.37;;;6.60;1.00;;;;;;5106484;28;20197;-79
2024/03/08 10:37:05;;;;;;;25.13;13.07;;;6.60;1.00;;;;;;5101210;28;20292;-79
2024/03/08 10:39:36;;;;;;;30.83;15.90;;;6.70;1.00;;;;;;5099476;28;20283;-80
2024/03/08 10:42:05;;;;;;;29.03;16.70;;;6.90;1.00;;;;;;5106737;28;20273;-80
2024/03/08 10:44:50;;;;;;;32.20;18.40;;;6.60;1.00;;;;;;5099767;28;20248;-80
2024/03/08 10:47:20;;;;;;;33.60;17.03;;;6.80;1.00;;;;;;5101273;28;20205;-79
2024/03/08 10:49:55;;;;;;;39.40;21.03;;;6.70;1.00;;;;;;5112398;28;20639;-80
2024/03/08 10:52:23;;;;;;;23.83;11.43;;;6.90;1.00;;;;;;5102521;28;20200;-79
2024/03/08 10:54:50;;;;;;;30.30;16.23;;;6.80;1.00;;;;;;5101637;28;20237;-80
2024/03/08 10:57:20;;;;;;;34.97;20.57;;;6.70;1.00;;;;;;5104030;28;20207;-80
2024/03/08 10:59:49;;;;;;;31.17;18.30;;;7.10;1.00;;;;;;5107209;28;20284;-81
2024/03/08 11:02:19;;;;;;;36.47;20.63;;;7.20;1.00;;;;;;5104371;28;20205;-80
2024/03/08 11:04:49;;;;;;;25.90;13.63;;;7.20;1.00;;;;;;5104566;28;20297;-79
2024/03/08 11:07:19;;;;;;;33.60;18.90;;;7.00;1.00;;;;;;5109933;28;20312;-80
2024/03/08 11:09:48;;;;;;;34.60;19.80;;;7.10;1.00;;;;;;5108068;28;20228;-78
2024/03/08 11:12:25;;;;;;;32.47;19.73;;;7.20;1.00;;;;;;5110453;28;20205;-79
2024/03/08 11:14:53;;;;;;;30.03;18.97;;;7.30;1.00;;;;;;5110613;28;20200;-80
2024/03/08 11:17:45;;;;;;;31.37;17.77;;;7.30;1.00;;;;;;5101478;28;20684;-79
2024/03/08 11:20:16;;;;;;;24.53;13.40;;;7.30;1.00;;;;;;5114614;28;20282;-79
2024/03/08 11:22:48;;;;;;;26.67;14.67;;;7.30;1.00;;;;;;5113418;28;20596;-79
2024/03/08 11:25:39;;;;;;;32.87;16.20;;;7.10;1.00;;;;;;5114407;28;20217;-78
2024/03/08 11:28:16;;;;;;;34.70;22.20;;;7.50;1.00;;;;;;5104054;28;20217;-81
2024/03/08 11:30:44;;;;;;;28.23;15.73;;;7.50;1.00;;;;;;5116913;28;20235;-79
2024/03/08 11:33:13;;;;;;;36.57;21.67;;;7.50;1.00;;;;;;5108306;28;20235;-81
2024/03/08 11:35:41;;;;;;;37.63;22.10;;;7.60;1.00;;;;;;5108836;28;20296;-80
2024/03/08 11:38:09;;;;;;;32.07;18.03;;;7.90;1.00;;;;;;5111317;28;20234;-80
2024/03/08 11:40:40;;;;;;;31.80;17.33;;;7.50;1.00;;;;;;5105139;28;20216;-80
2024/03/08 11:43:08;;;;;;;30.93;17.93;;;7.70;1.00;;;;;;5102317;28;20201;-79
2024/03/08 11:45:36;;;;;;;35.90;20.63;;;7.50;1.00;;;;;;5104512;28;20213;-79
2024/03/08 11:48:04;;;;;;;30.77;18.40;;;7.90;1.00;;;;;;5111409;28;20297;-79
2024/03/08 11:50:33;;;;;;;23.13;13.10;;;7.90;1.00;;;;;;5110942;28;20304;-78
2024/03/08 11:53:04;;;;;;;35.10;18.80;;;7.70;1.00;;;;;;5114511;28;20288;-79
2024/03/08 11:55:31;;;;;;;26.20;14.10;;;7.70;1.00;;;;;;5105795;28;20564;-81
2024/03/08 11:58:04;;;;;;;29.20;16.33;;;7.80;1.00;;;;;;5108904;28;20212;-79
2024/03/08 12:00:35;;;;;;;27.63;16.10;;;7.80;1.00;;;;;;5113665;28;20224;-81
2024/03/08 12:03:09;;;;;;;22.80;13.40;;;7.70;1.00;;;;;;5110771;28;20222;-80
2024/03/08 12:05:38;;;;;;;27.40;14.90;;;7.80;1.00;;;;;;5106122;28;20200;-80
2024/03/08 12:08:06;;;;;;;28.63;16.10;;;7.80;1.00;;;;;;5110121;28;20201;-79
2024/03/08 12:10:35;;;;;;;27.60;13.67;;;7.90;1.00;;;;;;5111910;28;20239;-81
2024/03/08 12:13:04;;;;;;;25.03;12.50;;;7.80;1.00;;;;;;5116535;28;20209;-78
2024/03/08 12:15:33;;;;;;;24.90;13.23;;;7.80;1.00;;;;;;5107222;28;20197;-79
2024/03/08 12:18:01;;;;;;;31.90;18.73;;;7.80;1.00;;;;;;5113494;28;20583;-79
2024/03/08 12:20:30;;;;;;;24.33;14.37;;;7.90;1.00;;;;;;5107162;28;20235;-80
2024/03/08 12:22:58;;;;;;;19.57;10.97;;;7.80;1.00;;;;;;5111391;28;20291;-80
2024/03/08 12:25:29;;;;;;;30.20;16.90;;;7.80;1.00;;;;;;5110806;28;20200;-78
2024/03/08 12:27:57;;;;;;;34.23;18.63;;;7.80;1.00;;;;;;5113003;28;20205;-83
2024/03/08 12:30:27;;;;;;;29.10;15.90;;;7.80;1.00;;;;;;5113435;28;20604;-79
2024/03/08 12:32:57;;;;;;;28.37;12.87;;;7.90;1.00;;;;;;5115242;28;20205;-78
2024/03/08 12:35:25;;;;;;;28.33;16.20;;;7.80;1.00;;;;;;5113666;28;20237;-81
2024/03/08 12:37:53;;;;;;;30.83;16.03;;;7.90;1.00;;;;;;5114367;28;20201;-79
2024/03/08 12:40:26;;;;;;;30.97;18.83;;;7.80;1.00;;;;;;5106667;28;20217;-80
2024/03/08 12:42:53;;;;;;;29.50;17.27;;;8.20;1.00;;;;;;5107234;28;20625;-79
2024/03/08 12:45:21;;;;;;;30.57;17.57;;;8.20;1.00;;;;;;5101588;28;20255;-79